Time;durP1;ratioP1;P1;durP2;ratioP2;P2;SDS_P1;SDS_P2;PMS_P1;PMS_P2;Temp;Humidity;BMP_temperature;BMP_pressure;BME280_temperature;BME280_humidity;BME280_pressure;Samples;Min_cycle;Max_cycle;Signal;HPM_P1;HPM_P2
2024/01/23 00:01:26;;;;;;;24.30;3.05;;;;;;;;;;4972313;28;20042;-67
2024/01/23 00:03:52;;;;;;;23.63;3.50;;;;;;;;;;4973063;28;20485;-67
2024/01/23 00:06:18;;;;;;;25.90;3.58;;;;;;;;;;4972623;28;20517;-67
2024/01/23 00:08:44;;;;;;;21.58;3.17;;;;;;;;;;4972845;28;20125;-67
2024/01/23 00:11:10;;;;;;;29.20;4.00;;;;;;;;;;4971250;28;20043;-67
2024/01/23 00:13:36;;;;;;;16.08;3.42;;;;;;;;;;4972656;28;20133;-67
2024/01/23 00:16:02;;;;;;;16.75;2.47;;;;;;;;;;4971534;28;20038;-67
2024/01/23 00:18:28;;;;;;;21.55;3.15;;;;;;;;;;4972633;28;20675;-67
2024/01/23 00:20:54;;;;;;;25.45;3.28;;;;;;;;;;4971407;28;20117;-67
2024/01/23 00:23:20;;;;;;;16.50;2.85;;;;;;;;;;4972560;28;20409;-67
2024/01/23 00:25:47;;;;;;;22.42;3.60;;;;;;;;;;4972139;28;20166;-67
2024/01/23 00:28:13;;;;;;;16.25;3.17;;;;;;;;;;4972681;28;20050;-67
2024/01/23 00:30:40;;;;;;;14.98;3.10;;;;;;;;;;4971420;28;20069;-67
2024/01/23 00:33:06;;;;;;;18.88;2.95;;;;;;;;;;4972520;28;20562;-67
2024/01/23 00:35:32;;;;;;;19.42;3.55;;;;;;;;;;4972382;28;20137;-67
2024/01/23 00:37:58;;;;;;;27.23;3.17;;;;;;;;;;4972269;28;20122;-67
2024/01/23 00:40:24;;;;;;;15.60;3.00;;;;;;;;;;4971194;28;20043;-67
2024/01/23 00:42:50;;;;;;;18.75;2.85;;;;;;;;;;4971728;28;20470;-67
2024/01/23 00:45:16;;;;;;;19.63;2.72;;;;;;;;;;4971880;28;20094;-67
2024/01/23 00:47:42;;;;;;;16.90;3.22;;;;;;;;;;4971990;28;20075;-67
2024/01/23 00:50:08;;;;;;;17.00;3.20;;;;;;;;;;4971278;28;20046;-67
2024/01/23 00:52:34;;;;;;;16.85;3.08;;;;;;;;;;4971692;28;20745;-67
2024/01/23 00:55:03;;;;;;;22.23;3.70;;;;;;;;;;4972034;28;20047;-67
2024/01/23 00:57:29;;;;;;;15.88;3.20;;;;;;;;;;4971941;28;20141;-67
2024/01/23 00:59:55;;;;;;;17.23;2.50;;;;;;;;;;4971782;28;20042;-67
2024/01/23 01:02:21;;;;;;;17.98;2.72;;;;;;;;;;4971122;28;20118;-67
2024/01/23 01:04:47;;;;;;;16.48;3.42;;;;;;;;;;4971248;28;20070;-67
2024/01/23 01:07:14;;;;;;;17.65;2.67;;;;;;;;;;4963084;28;20463;-67
2024/01/23 01:09:40;;;;;;;22.00;3.72;;;;;;;;;;4960894;28;20039;-67
2024/01/23 01:12:06;;;;;;;19.75;3.08;;;;;;;;;;4970679;28;20046;-67
2024/01/23 01:14:37;;;;;;;24.05;3.47;;;;;;;;;;4971405;28;20391;-67
2024/01/23 01:17:04;;;;;;;19.63;2.65;;;;;;;;;;4971759;28;20061;-67
2024/01/23 01:19:30;;;;;;;24.15;3.40;;;;;;;;;;4954331;28;20525;-67
2024/01/23 01:21:56;;;;;;;16.88;3.50;;;;;;;;;;4970441;28;20078;-67
2024/01/23 01:24:21;;;;;;;19.10;3.35;;;;;;;;;;4971391;28;20477;-67
2024/01/23 01:26:47;;;;;;;18.45;3.20;;;;;;;;;;4971318;28;20046;-67
2024/01/23 01:29:13;;;;;;;22.85;3.45;;;;;;;;;;4971213;28;20113;-67
2024/01/23 01:31:39;;;;;;;21.92;3.65;;;;;;;;;;4970427;28;20446;-67
2024/01/23 01:34:05;;;;;;;15.45;3.53;;;;;;;;;;4971116;28;20039;-67
2024/01/23 01:36:32;;;;;;;17.90;3.13;;;;;;;;;;4971198;28;20497;-67
2024/01/23 01:39:00;;;;;;;25.00;3.38;;;;;;;;;;4971137;28;20039;-67
2024/01/23 01:41:26;;;;;;;18.92;3.13;;;;;;;;;;4953253;28;20050;-67
2024/01/23 01:43:52;;;;;;;21.20;3.92;;;;;;;;;;4971211;28;20433;-67
2024/01/23 01:46:20;;;;;;;20.05;2.83;;;;;;;;;;4970797;28;20133;-67
2024/01/23 01:48:46;;;;;;;23.75;3.25;;;;;;;;;;4971122;28;20488;-67
2024/01/23 01:51:12;;;;;;;27.15;3.95;;;;;;;;;;4970171;28;20422;-67
2024/01/23 01:53:39;;;;;;;17.00;3.45;;;;;;;;;;4970390;28;20430;-67
2024/01/23 01:56:06;;;;;;;21.50;3.55;;;;;;;;;;4971182;28;20035;-67
2024/01/23 01:58:32;;;;;;;23.15;3.53;;;;;;;;;;4970542;28;20043;-67
2024/01/23 02:01:00;;;;;;;23.15;2.90;;;;;;;;;;4970230;28;20039;-67
2024/01/23 02:03:27;;;;;;;20.58;3.10;;;;;;;;;;4970774;28;20054;-67
2024/01/23 02:05:53;;;;;;;21.23;3.90;;;;;;;;;;4970316;28;20058;-67
2024/01/23 02:08:19;;;;;;;16.52;3.33;;;;;;;;;;4970467;28;20037;-67
2024/01/23 02:10:45;;;;;;;21.73;3.55;;;;;;;;;;4970355;28;20457;-67
2024/01/23 02:13:11;;;;;;;26.67;3.30;;;;;;;;;;4969693;28;20047;-67
2024/01/23 02:15:37;;;;;;;23.23;3.53;;;;;;;;;;4970759;28;20401;-67
2024/01/23 02:18:03;;;;;;;24.50;4.28;;;;;;;;;;4970157;28;20047;-67
2024/01/23 02:20:29;;;;;;;14.70;2.92;;;;;;;;;;4970574;28;20393;-67
2024/01/23 02:22:55;;;;;;;19.90;3.33;;;;;;;;;;4969673;28;20468;-67
2024/01/23 02:25:21;;;;;;;20.95;3.30;;;;;;;;;;4970338;28;20039;-67
2024/01/23 02:27:47;;;;;;;29.40;3.47;;;;;;;;;;4970743;28;20085;-67
2024/01/23 02:30:13;;;;;;;23.27;3.22;;;;;;;;;;4970168;28;20042;-67
2024/01/23 02:32:45;;;;;;;30.13;4.50;;;;;;;;;;4969795;28;20047;-67
2024/01/23 02:35:11;;;;;;;18.35;2.97;;;;;;;;;;4974036;28;20047;-67
2024/01/23 02:37:37;;;;;;;31.88;3.90;;;;;;;;;;4974153;28;20047;-67
2024/01/23 02:40:04;;;;;;;19.73;3.83;;;;;;;;;;4974229;28;20057;-67
2024/01/23 02:42:30;;;;;;;13.75;3.33;;;;;;;;;;4973290;28;20051;-67
2024/01/23 02:44:56;;;;;;;26.67;3.13;;;;;;;;;;4974318;28;20077;-67
2024/01/23 02:47:22;;;;;;;26.35;4.55;;;;;;;;;;4974545;28;20049;-67
2024/01/23 02:49:48;;;;;;;23.75;3.60;;;;;;;;;;4973695;28;20169;-67
2024/01/23 02:52:14;;;;;;;25.77;3.72;;;;;;;;;;4973704;28;20042;-67
2024/01/23 02:54:40;;;;;;;20.27;3.58;;;;;;;;;;4973667;28;20065;-67
2024/01/23 02:57:06;;;;;;;19.15;3.72;;;;;;;;;;4973914;28;20051;-67
2024/01/23 02:59:32;;;;;;;19.55;3.60;;;;;;;;;;4974001;28;20488;-67
2024/01/23 03:01:58;;;;;;;24.98;4.15;;;;;;;;;;4973314;28;20070;-67
2024/01/23 03:04:24;;;;;;;23.30;4.15;;;;;;;;;;4973688;28;20121;-67
2024/01/23 03:06:50;;;;;;;25.70;3.85;;;;;;;;;;4973306;28;20509;-67
2024/01/23 03:09:16;;;;;;;18.50;3.50;;;;;;;;;;4973570;28;20047;-67
2024/01/23 03:11:42;;;;;;;28.10;3.67;;;;;;;;;;4973870;28;20074;-67
2024/01/23 03:14:08;;;;;;;24.38;3.92;;;;;;;;;;4973189;28;20105;-67
2024/01/23 03:16:34;;;;;;;27.42;4.05;;;;;;;;;;4956235;28;20460;-67
2024/01/23 03:19:00;;;;;;;22.52;3.85;;;;;;;;;;4973327;28;20133;-67
2024/01/23 03:21:26;;;;;;;27.75;3.70;;;;;;;;;;4973318;28;20050;-67
2024/01/23 03:23:52;;;;;;;26.70;3.50;;;;;;;;;;4972908;28;20038;-67
2024/01/23 03:26:18;;;;;;;20.67;3.55;;;;;;;;;;4973650;28;20043;-67
2024/01/23 03:28:44;;;;;;;21.52;3.28;;;;;;;;;;4973239;28;20045;-67
2024/01/23 03:31:10;;;;;;;20.20;3.92;;;;;;;;;;4973094;28;20043;-67
2024/01/23 03:33:36;;;;;;;24.80;3.95;;;;;;;;;;4955608;28;20046;-67
2024/01/23 03:36:02;;;;;;;26.15;4.28;;;;;;;;;;4973549;28;20058;-67
2024/01/23 03:38:28;;;;;;;27.50;3.53;;;;;;;;;;4972971;28;20078;-67
2024/01/23 03:40:54;;;;;;;24.67;3.40;;;;;;;;;;4973151;28;20035;-67
2024/01/23 03:43:22;;;;;;;31.13;4.35;;;;;;;;;;4955162;28;20047;-67
2024/01/23 03:45:48;;;;;;;20.48;3.22;;;;;;;;;;4971846;28;20429;-67
2024/01/23 03:48:14;;;;;;;29.35;4.63;;;;;;;;;;4973391;28;20038;-67
2024/01/23 03:50:39;;;;;;;24.25;3.72;;;;;;;;;;4972868;28;20456;-67
2024/01/23 03:53:05;;;;;;;21.27;3.70;;;;;;;;;;4972597;28;20109;-67
2024/01/23 03:55:31;;;;;;;32.85;3.80;;;;;;;;;;4972602;28;20075;-67
2024/01/23 03:57:57;;;;;;;25.52;3.35;;;;;;;;;;4973034;28;20142;-67
2024/01/23 04:00:25;;;;;;;21.92;3.88;;;;;;;;;;4972683;28;20054;-67
2024/01/23 04:02:51;;;;;;;25.85;3.95;;;;;;;;;;4972398;28;20482;-67
2024/01/23 04:05:17;;;;;;;30.05;3.90;;;;;;;;;;4972635;28;20094;-67
2024/01/23 04:07:43;;;;;;;30.70;4.45;;;;;;;;;;4952915;29;20053;-67
2024/01/23 04:10:09;;;;;;;32.58;4.25;;;;;;;;;;4946576;28;20054;-67
2024/01/23 04:12:35;;;;;;;27.88;4.28;;;;;;;;;;4972596;28;20052;-67
2024/01/23 04:15:02;;;;;;;29.60;4.78;;;;;;;;;;4972132;28;20038;-67
2024/01/23 04:17:29;;;;;;;24.23;4.18;;;;;;;;;;4972513;28;20042;-67
2024/01/23 04:19:55;;;;;;;24.63;4.75;;;;;;;;;;4972566;28;20053;-67
2024/01/23 04:22:21;;;;;;;22.77;3.65;;;;;;;;;;4971834;28;20130;-67
2024/01/23 04:24:47;;;;;;;26.38;4.45;;;;;;;;;;4971924;28;20043;-67
2024/01/23 04:27:15;;;;;;;29.75;4.10;;;;;;;;;;4972256;28;20047;-67
2024/01/23 04:29:41;;;;;;;22.02;4.30;;;;;;;;;;4971880;28;20047;-67
2024/01/23 04:32:07;;;;;;;23.25;4.40;;;;;;;;;;4972325;28;20074;-67
2024/01/23 04:34:33;;;;;;;28.63;4.63;;;;;;;;;;4971699;28;20039;-67
2024/01/23 04:36:59;;;;;;;27.45;4.95;;;;;;;;;;4972258;28;20047;-67
2024/01/23 04:39:25;;;;;;;29.80;4.43;;;;;;;;;;4971631;28;20073;-67
2024/01/23 04:41:51;;;;;;;35.78;4.50;;;;;;;;;;4971879;28;20129;-67
2024/01/23 04:44:17;;;;;;;33.90;4.28;;;;;;;;;;4971502;28;20054;-67
2024/01/23 04:46:45;;;;;;;27.45;4.07;;;;;;;;;;4971886;28;20038;-67
2024/01/23 04:49:11;;;;;;;28.52;4.60;;;;;;;;;;4971725;28;20054;-67
2024/01/23 04:51:37;;;;;;;29.63;5.00;;;;;;;;;;4971924;28;20042;-67
2024/01/23 04:54:03;;;;;;;31.15;4.47;;;;;;;;;;4971369;28;20711;-67
2024/01/23 04:56:29;;;;;;;25.23;3.88;;;;;;;;;;4971574;28;20042;-67
2024/01/23 04:58:55;;;;;;;24.38;5.20;;;;;;;;;;4971738;28;20046;-67
2024/01/23 05:01:21;;;;;;;29.67;4.22;;;;;;;;;;4971670;28;20378;-67
2024/01/23 05:03:47;;;;;;;25.85;4.63;;;;;;;;;;4970086;28;20128;-67
2024/01/23 05:06:13;;;;;;;26.95;4.80;;;;;;;;;;4970963;28;20156;-67
2024/01/23 05:08:39;;;;;;;31.50;4.65;;;;;;;;;;4971810;28;20051;-67
2024/01/23 05:11:05;;;;;;;34.53;5.03;;;;;;;;;;4971371;28;20042;-67
2024/01/23 05:13:31;;;;;;;30.77;4.45;;;;;;;;;;4971334;28;20046;-67
2024/01/23 05:15:57;;;;;;;31.67;4.13;;;;;;;;;;4970027;28;20031;-67
2024/01/23 05:18:23;;;;;;;37.53;4.97;;;;;;;;;;4971631;28;20043;-67
2024/01/23 05:20:49;;;;;;;33.00;5.55;;;;;;;;;;4971058;28;20545;-67
2024/01/23 05:23:15;;;;;;;26.58;4.35;;;;;;;;;;4971313;28;20035;-67
2024/01/23 05:25:42;;;;;;;21.40;4.28;;;;;;;;;;4970459;28;20074;-67
2024/01/23 05:28:08;;;;;;;28.77;4.80;;;;;;;;;;4971328;28;20043;-67
2024/01/23 05:30:34;;;;;;;35.60;4.80;;;;;;;;;;4971095;28;20041;-67
2024/01/23 05:33:00;;;;;;;30.10;5.35;;;;;;;;;;4971144;28;20125;-67
2024/01/23 05:35:26;;;;;;;27.90;5.28;;;;;;;;;;4969791;28;20035;-67
2024/01/23 05:37:52;;;;;;;28.88;5.65;;;;;;;;;;4969364;28;20638;-67
2024/01/23 05:40:18;;;;;;;28.83;4.88;;;;;;;;;;4970747;28;20042;-67
2024/01/23 05:42:44;;;;;;;28.75;5.00;;;;;;;;;;4970974;28;20050;-67
2024/01/23 05:45:10;;;;;;;33.95;5.25;;;;;;;;;;4970456;28;20125;-67
2024/01/23 05:47:36;;;;;;;40.15;5.28;;;;;;;;;;4970834;28;20674;-67
2024/01/23 05:50:02;;;;;;;36.13;5.10;;;;;;;;;;4958128;28;20490;-67
2024/01/23 05:52:28;;;;;;;31.00;5.43;;;;;;;;;;4971022;28;20045;-67
2024/01/23 05:54:55;;;;;;;25.65;4.88;;;;;;;;;;4964483;28;20043;-67
2024/01/23 05:57:20;;;;;;;30.15;4.90;;;;;;;;;;4970051;28;20086;-67
2024/01/23 05:59:46;;;;;;;40.63;6.15;;;;;;;;;;4967443;28;20460;-67
2024/01/23 06:02:12;;;;;;;28.63;5.10;;;;;;;;;;4970608;28;20035;-67
2024/01/23 06:04:38;;;;;;;38.65;5.40;;;;;;;;;;4970581;28;20073;-67
2024/01/23 06:07:06;;;;;;;33.90;5.10;;;;;;;;;;4970188;28;20057;-67
2024/01/23 06:09:33;;;;;;;37.58;5.97;;;;;;;;;;4968780;28;20160;-67
2024/01/23 06:11:59;;;;;;;35.47;6.50;;;;;;;;;;4970558;28;20059;-67
2024/01/23 06:14:25;;;;;;;23.50;5.03;;;;;;;;;;4970954;28;20046;-67
2024/01/23 06:16:51;;;;;;;33.78;4.68;;;;;;;;;;4968974;28;20127;-67
2024/01/23 06:19:20;;;;;;;39.80;6.25;;;;;;;;;;4970668;28;20043;-67
2024/01/23 06:21:46;;;;;;;29.65;6.00;;;;;;;;;;4970492;28;20154;-67
2024/01/23 06:24:12;;;;;;;30.17;4.90;;;;;;;;;;4951236;29;20550;-67
2024/01/23 06:26:38;;;;;;;33.47;5.53;;;;;;;;;;4961982;28;20497;-67
2024/01/23 06:29:04;;;;;;;31.77;4.78;;;;;;;;;;4970675;28;20047;-67
2024/01/23 06:31:31;;;;;;;35.10;5.57;;;;;;;;;;4970110;28;20101;-67
2024/01/23 06:33:57;;;;;;;41.67;6.38;;;;;;;;;;4970627;28;20074;-67
2024/01/23 06:36:23;;;;;;;31.52;5.45;;;;;;;;;;4969770;28;20437;-67
2024/01/23 06:38:49;;;;;;;32.78;5.00;;;;;;;;;;4970193;28;20101;-67
2024/01/23 06:41:15;;;;;;;32.25;6.13;;;;;;;;;;4953443;28;20065;-67
2024/01/23 06:43:41;;;;;;;40.70;5.55;;;;;;;;;;4970405;28;20166;-67
2024/01/23 06:46:07;;;;;;;32.80;5.75;;;;;;;;;;4969848;28;20054;-67
2024/01/23 06:48:33;;;;;;;36.70;4.93;;;;;;;;;;4963908;28;20047;-67
2024/01/23 06:50:59;;;;;;;39.95;6.07;;;;;;;;;;4966586;28;20054;-66
2024/01/23 06:53:25;;;;;;;36.20;6.15;;;;;;;;;;4970176;28;20058;-66
2024/01/23 06:55:51;;;;;;;31.17;5.45;;;;;;;;;;4955617;28;20162;-66
2024/01/23 06:58:17;;;;;;;37.25;6.07;;;;;;;;;;4970033;28;20051;-66
2024/01/23 07:00:43;;;;;;;36.67;5.75;;;;;;;;;;4969952;28;20047;-66
2024/01/23 07:03:10;;;;;;;35.90;6.43;;;;;;;;;;4970097;28;20039;-67
2024/01/23 07:05:36;;;;;;;32.60;5.45;;;;;;;;;;4968238;28;20050;-67
2024/01/23 07:08:03;;;;;;;37.72;5.22;;;;;;;;;;4969765;28;20050;-67
2024/01/23 07:10:30;;;;;;;33.95;6.72;;;;;;;;;;4969644;28;20047;-67
2024/01/23 07:12:56;;;;;;;39.50;7.07;;;;;;;;;;4970319;28;20105;-67
2024/01/23 07:15:22;;;;;;;32.08;4.93;;;;;;;;;;4970273;28;20047;-66
2024/01/23 07:17:48;;;;;;;39.00;6.10;;;;;;;;;;4967676;28;20077;-66
2024/01/23 07:20:14;;;;;;;36.92;5.78;;;;;;;;;;4970057;28;20061;-67
2024/01/23 08:39:54;;;;;;;35.00;4.95;;;;;;;;;;3533973;23;20335;-68
2024/01/23 08:42:20;;;;;;;41.95;6.10;;;;;;;;;;4925238;29;20043;-70
2024/01/23 08:44:49;;;;;;;41.17;6.00;;;;;;;;;;4920166;29;20100;-70
2024/01/23 08:47:15;;;;;;;39.63;4.93;;;;;;;;;;4916559;29;20047;-71
2024/01/23 08:49:41;;;;;;;47.70;5.93;;;;;;;;;;4929008;29;20085;-70
2024/01/23 08:52:07;;;;;;;37.83;6.35;;;;;;;;;;4925191;29;20509;-69
2024/01/23 08:54:34;;;;;;;27.70;6.03;;;;;;;;;;4914469;29;20429;-66
2024/01/23 08:57:00;;;;;;;31.15;5.53;;;;;;;;;;4914545;29;20059;-64
2024/01/23 08:59:28;;;;;;;32.60;5.22;;;;;;;;;;4917442;29;20044;-66
2024/01/23 09:01:54;;;;;;;32.75;5.60;;;;;;;;;;4931983;29;20044;-66
2024/01/23 09:04:21;;;;;;;41.53;6.75;;;;;;;;;;4937170;29;20554;-65
2024/01/23 09:06:47;;;;;;;34.33;5.80;;;;;;;;;;4929906;29;20048;-65
2024/01/23 09:09:13;;;;;;;34.63;5.82;;;;;;;;;;4945332;29;20050;-65
2024/01/23 09:11:39;;;;;;;24.02;4.85;;;;;;;;;;4924200;29;20102;-65
2024/01/23 09:14:05;;;;;;;33.33;5.15;;;;;;;;;;4941923;28;20079;-65
2024/01/23 09:16:31;;;;;;;39.10;5.75;;;;;;;;;;4935439;29;20141;-65
2024/01/23 09:18:57;;;;;;;30.40;5.45;;;;;;;;;;4937688;29;20035;-65
2024/01/23 09:21:24;;;;;;;34.47;6.15;;;;;;;;;;4938569;29;20525;-65
2024/01/23 09:23:50;;;;;;;31.45;6.15;;;;;;;;;;4949855;29;20454;-66
2024/01/23 09:26:16;;;;;;;35.38;6.03;;;;;;;;;;4942501;29;20098;-66
2024/01/23 09:28:42;;;;;;;28.90;5.05;;;;;;;;;;4937548;29;20044;-66
2024/01/23 09:31:08;;;;;;;36.78;5.25;;;;;;;;;;4930263;29;20043;-65
2024/01/23 09:33:35;;;;;;;37.05;6.60;;;;;;;;;;4947881;29;20078;-66
2024/01/23 09:36:01;;;;;;;38.83;5.60;;;;;;;;;;4940472;29;20046;-65
2024/01/23 09:38:27;;;;;;;36.78;5.50;;;;;;;;;;4945339;29;20050;-65
2024/01/23 09:40:53;;;;;;;39.70;6.35;;;;;;;;;;4947144;29;20051;-67
2024/01/23 09:43:20;;;;;;;33.90;5.60;;;;;;;;;;4949440;29;20094;-68
2024/01/23 09:45:49;;;;;;;38.70;5.80;;;;;;;;;;4914658;29;20107;-66
2024/01/23 09:48:16;;;;;;;34.15;5.22;;;;;;;;;;4923824;29;20123;-67
2024/01/23 09:50:42;;;;;;;35.10;5.22;;;;;;;;;;4931377;29;21163;-66
2024/01/23 09:53:10;;;;;;;36.45;5.32;;;;;;;;;;4939368;29;20118;-67
2024/01/23 09:55:36;;;;;;;39.08;5.68;;;;;;;;;;4930010;29;20048;-68
2024/01/23 09:58:03;;;;;;;30.63;4.85;;;;;;;;;;4896551;29;20047;-67
2024/01/23 10:00:29;;;;;;;33.05;4.90;;;;;;;;;;4917162;29;20522;-66
2024/01/23 10:02:55;;;;;;;27.33;6.13;;;;;;;;;;4930045;29;20054;-66
2024/01/23 10:05:25;;;;;;;39.92;5.55;;;;;;;;;;4936103;29;20134;-68
2024/01/23 10:07:51;;;;;;;37.25;6.18;;;;;;;;;;4929882;29;20120;-66
2024/01/23 10:10:18;;;;;;;42.10;6.38;;;;;;;;;;4927715;29;20044;-66
2024/01/23 10:12:48;;;;;;;29.58;5.70;;;;;;;;;;4942273;29;20054;-68
2024/01/23 10:15:16;;;;;;;30.67;5.68;;;;;;;;;;4932723;29;20039;-65
2024/01/23 10:17:43;;;;;;;31.83;4.80;;;;;;;;;;4930661;29;20047;-66
2024/01/23 10:20:09;;;;;;;34.92;5.72;;;;;;;;;;4927679;29;20549;-67
2024/01/23 10:22:36;;;;;;;29.27;5.30;;;;;;;;;;4933633;29;20069;-67
2024/01/23 10:25:03;;;;;;;36.83;5.90;;;;;;;;;;4888705;29;20439;-66
2024/01/23 10:27:33;;;;;;;34.95;5.57;;;;;;;;;;4925101;29;20044;-66
2024/01/23 10:29:59;;;;;;;33.20;5.25;;;;;;;;;;4920737;29;20040;-67
2024/01/23 10:32:26;;;;;;;33.75;4.93;;;;;;;;;;4926857;29;20040;-69
2024/01/23 10:34:53;;;;;;;34.85;5.95;;;;;;;;;;4924068;29;20687;-67
2024/01/23 10:37:20;;;;;;;33.70;6.28;;;;;;;;;;4932815;29;20051;-67
2024/01/23 10:39:47;;;;;;;38.50;6.00;;;;;;;;;;4925441;29;20048;-68
2024/01/23 10:42:13;;;;;;;33.42;5.68;;;;;;;;;;4928678;29;20056;-69
2024/01/23 10:44:40;;;;;;;34.67;5.15;;;;;;;;;;4939001;29;20039;-65
2024/01/23 10:47:06;;;;;;;30.75;5.13;;;;;;;;;;4929718;29;20040;-65
2024/01/23 10:49:32;;;;;;;40.40;5.53;;;;;;;;;;4926307;29;20047;-66
2024/01/23 10:52:04;;;;;;;41.83;5.65;;;;;;;;;;4923689;29;20044;-68
2024/01/23 10:54:31;;;;;;;29.23;5.40;;;;;;;;;;4908030;29;20039;-69
2024/01/23 10:56:59;;;;;;;35.85;5.05;;;;;;;;;;4926224;29;20047;-63
2024/01/23 10:59:28;;;;;;;31.55;5.38;;;;;;;;;;4935458;29;20158;-65
2024/01/23 11:01:59;;;;;;;30.15;4.78;;;;;;;;;;4923736;29;20074;-66
2024/01/23 11:04:25;;;;;;;35.58;5.57;;;;;;;;;;4946866;29;20051;-65
2024/01/23 11:07:10;;;;;;;31.25;5.05;;;;;;;;;;4929859;29;20046;-66
2024/01/23 11:09:48;;;;;;;34.88;5.30;;;;;;;;;;4933221;29;20036;-65
2024/01/23 11:12:22;;;;;;;46.35;5.82;;;;;;;;;;4916520;29;20445;-65
2024/01/23 11:14:56;;;;;;;34.03;6.22;;;;;;;;;;4944342;29;20385;-66
2024/01/23 11:17:22;;;;;;;32.42;5.35;;;;;;;;;;4934360;29;20143;-64
2024/01/23 11:20:04;;;;;;;29.20;4.93;;;;;;;;;;4931721;29;20035;-67
2024/01/23 11:22:30;;;;;;;34.13;5.20;;;;;;;;;;4933997;29;20044;-67
2024/01/23 11:24:56;;;;;;;24.15;4.65;;;;;;;;;;4926188;29;20043;-67
2024/01/23 11:27:23;;;;;;;31.45;5.22;;;;;;;;;;4916788;29;20054;-67
2024/01/23 11:29:50;;;;;;;35.33;6.22;;;;;;;;;;4928794;29;20502;-67
2024/01/23 11:32:18;;;;;;;32.78;6.35;;;;;;;;;;4941796;29;20042;-67
2024/01/23 11:34:44;;;;;;;28.42;4.45;;;;;;;;;;4932287;29;20062;-67
2024/01/23 11:37:29;;;;;;;26.67;4.47;;;;;;;;;;4939528;29;20064;-67
2024/01/23 11:39:55;;;;;;;25.52;4.82;;;;;;;;;;4929445;29;20035;-67
2024/01/23 11:42:21;;;;;;;33.03;5.50;;;;;;;;;;4937024;29;20063;-68
2024/01/23 11:44:47;;;;;;;31.83;5.15;;;;;;;;;;4943905;29;20040;-67
2024/01/23 11:47:13;;;;;;;31.95;5.68;;;;;;;;;;4932005;29;20119;-67
2024/01/23 11:49:39;;;;;;;34.10;5.20;;;;;;;;;;4929656;29;20043;-68
2024/01/23 11:52:05;;;;;;;28.88;5.30;;;;;;;;;;4931531;29;20091;-68
2024/01/23 11:54:31;;;;;;;31.23;5.40;;;;;;;;;;4928118;29;20075;-68
2024/01/23 11:56:58;;;;;;;37.30;5.63;;;;;;;;;;4931932;29;20446;-68
2024/01/23 11:59:24;;;;;;;42.40;6.03;;;;;;;;;;4926710;29;20048;-67
2024/01/23 12:01:50;;;;;;;34.67;4.97;;;;;;;;;;4935404;29;20047;-67
2024/01/23 12:04:16;;;;;;;32.72;5.72;;;;;;;;;;4929927;29;20573;-66
2024/01/23 12:06:42;;;;;;;31.23;4.85;;;;;;;;;;4929345;29;20082;-68
2024/01/23 12:09:08;;;;;;;35.58;4.88;;;;;;;;;;4915702;29;20043;-69
2024/01/23 12:11:36;;;;;;;36.33;5.43;;;;;;;;;;4921591;29;20036;-68
2024/01/23 12:14:02;;;;;;;30.60;5.13;;;;;;;;;;4944277;29;20573;-67
2024/01/23 12:16:28;;;;;;;29.55;5.32;;;;;;;;;;4919805;29;20039;-66
2024/01/23 12:18:57;;;;;;;32.88;5.38;;;;;;;;;;4944072;29;20383;-67
2024/01/23 12:21:23;;;;;;;30.00;4.80;;;;;;;;;;4920738;29;20400;-67
2024/01/23 12:23:50;;;;;;;32.70;4.80;;;;;;;;;;4918655;29;20051;-64
2024/01/23 12:26:17;;;;;;;33.83;5.65;;;;;;;;;;4929169;29;20482;-68
2024/01/23 12:28:44;;;;;;;36.05;5.15;;;;;;;;;;4940680;29;20039;-67
2024/01/23 12:31:11;;;;;;;31.33;4.90;;;;;;;;;;4935836;29;20035;-69
2024/01/23 12:33:38;;;;;;;34.33;4.70;;;;;;;;;;4928783;29;20126;-68
2024/01/23 12:36:05;;;;;;;31.08;5.45;;;;;;;;;;4943661;29;20048;-68
2024/01/23 12:38:32;;;;;;;23.08;4.93;;;;;;;;;;4913286;29;20194;-68
2024/01/23 12:41:01;;;;;;;35.47;5.70;;;;;;;;;;4941165;29;20060;-67
2024/01/23 12:43:27;;;;;;;31.50;5.57;;;;;;;;;;4940920;29;20074;-66
2024/01/23 12:45:53;;;;;;;34.28;6.00;;;;;;;;;;4929235;29;20071;-68
2024/01/23 12:48:20;;;;;;;32.22;5.35;;;;;;;;;;4933522;29;20055;-68
2024/01/23 12:50:47;;;;;;;28.63;5.80;;;;;;;;;;4947494;29;20047;-68
2024/01/23 12:53:13;;;;;;;32.10;5.40;;;;;;;;;;4944880;29;20048;-68
2024/01/23 12:55:39;;;;;;;27.48;6.30;;;;;;;;;;4949950;29;20047;-67
2024/01/23 12:58:09;;;;;;;27.25;5.22;;;;;;;;;;4947507;29;20043;-66
2024/01/23 13:00:35;;;;;;;29.92;5.45;;;;;;;;;;4947020;29;20046;-68
2024/01/23 13:03:04;;;;;;;29.83;5.78;;;;;;;;;;4925471;29;20047;-68
2024/01/23 13:05:30;;;;;;;30.10;4.50;;;;;;;;;;4934034;29;20748;-69
2024/01/23 13:07:56;;;;;;;30.40;5.55;;;;;;;;;;4930631;29;20134;-67
2024/01/23 13:10:22;;;;;;;28.60;5.90;;;;;;;;;;4929212;29;20534;-68
2024/01/23 13:12:51;;;;;;;41.85;5.80;;;;;;;;;;4934172;29;20460;-68
2024/01/23 13:15:17;;;;;;;24.67;4.57;;;;;;;;;;4933479;29;20051;-69
2024/01/23 13:17:43;;;;;;;30.35;4.68;;;;;;;;;;4934298;29;20039;-65
2024/01/23 13:20:13;;;;;;;27.95;5.00;;;;;;;;;;4929584;29;20380;-65
2024/01/23 13:22:43;;;;;;;36.45;4.75;;;;;;;;;;4929917;29;20130;-67
2024/01/23 13:25:09;;;;;;;32.85;5.18;;;;;;;;;;4931999;29;20115;-69
2024/01/23 13:27:35;;;;;;;27.60;4.28;;;;;;;;;;4932434;29;20069;-70
2024/01/23 13:30:01;;;;;;;21.75;4.60;;;;;;;;;;4929501;29;20027;-68
2024/01/23 13:32:27;;;;;;;35.00;4.75;;;;;;;;;;4926246;29;20368;-69
2024/01/23 13:34:54;;;;;;;28.92;4.20;;;;;;;;;;4926217;29;20036;-68
2024/01/23 13:37:20;;;;;;;22.58;4.43;;;;;;;;;;4930579;29;20058;-68
2024/01/23 13:39:48;;;;;;;22.60;4.57;;;;;;;;;;4934427;29;20102;-68
2024/01/23 13:42:14;;;;;;;27.83;4.20;;;;;;;;;;4912593;29;20127;-68
2024/01/23 13:44:40;;;;;;;23.20;4.22;;;;;;;;;;4930344;29;20118;-68
2024/01/23 13:47:07;;;;;;;28.00;4.75;;;;;;;;;;4934633;29;20506;-68
2024/01/23 13:49:33;;;;;;;25.02;4.57;;;;;;;;;;4928776;29;20493;-68
2024/01/23 13:51:59;;;;;;;29.13;6.03;;;;;;;;;;4938229;29;20043;-66
2024/01/23 13:54:25;;;;;;;31.50;4.90;;;;;;;;;;4927428;29;20565;-70
2024/01/23 13:56:51;;;;;;;32.28;5.35;;;;;;;;;;4922733;28;20036;-67
2024/01/23 13:59:17;;;;;;;30.98;4.18;;;;;;;;;;4922853;29;20047;-68
2024/01/23 14:01:43;;;;;;;26.52;4.20;;;;;;;;;;4918380;29;20036;-66
2024/01/23 14:04:09;;;;;;;32.60;4.43;;;;;;;;;;4923382;29;20066;-66
2024/01/23 14:06:35;;;;;;;24.20;4.18;;;;;;;;;;4922740;29;20407;-65
2024/01/23 14:09:01;;;;;;;30.40;4.30;;;;;;;;;;4919760;29;20050;-65
2024/01/23 14:11:27;;;;;;;26.13;4.63;;;;;;;;;;4920832;29;20035;-65
2024/01/23 14:13:53;;;;;;;30.25;4.68;;;;;;;;;;4910872;29;20050;-66
2024/01/23 14:16:19;;;;;;;27.30;4.53;;;;;;;;;;4920505;29;20039;-67
2024/01/23 14:18:45;;;;;;;24.25;4.05;;;;;;;;;;4931212;29;20044;-67
2024/01/23 14:21:12;;;;;;;25.80;4.25;;;;;;;;;;4932432;29;20067;-66
2024/01/23 14:23:38;;;;;;;28.95;4.90;;;;;;;;;;4924310;29;20051;-70
2024/01/23 14:26:05;;;;;;;29.73;5.35;;;;;;;;;;4900437;29;20063;-71
2024/01/23 14:28:31;;;;;;;24.83;4.28;;;;;;;;;;4926445;28;20043;-71
2024/01/23 14:30:57;;;;;;;20.08;3.70;;;;;;;;;;4955428;28;20122;-71
2024/01/23 14:33:23;;;;;;;26.58;4.32;;;;;;;;;;4938491;29;20047;-70
2024/01/23 14:35:49;;;;;;;27.52;4.50;;;;;;;;;;4956672;29;20106;-72
2024/01/23 14:38:15;;;;;;;23.60;4.65;;;;;;;;;;4954685;28;20043;-72
2024/01/23 14:40:41;;;;;;;24.50;4.30;;;;;;;;;;4932023;29;20506;-70
2024/01/23 14:43:07;;;;;;;32.05;4.55;;;;;;;;;;4939435;29;20052;-70
2024/01/23 14:45:34;;;;;;;22.88;4.28;;;;;;;;;;4940555;29;20043;-68
2024/01/23 14:48:00;;;;;;;23.42;4.30;;;;;;;;;;4916204;29;20481;-72
2024/01/23 14:50:26;;;;;;;24.27;5.35;;;;;;;;;;4914107;29;20043;-73
2024/01/23 14:52:52;;;;;;;32.13;4.72;;;;;;;;;;4910315;29;20119;-70
2024/01/23 14:55:18;;;;;;;21.92;3.88;;;;;;;;;;4904168;29;20050;-71
2024/01/23 14:57:44;;;;;;;23.00;5.13;;;;;;;;;;4920252;29;20672;-70
2024/01/23 15:00:11;;;;;;;29.02;4.45;;;;;;;;;;4917772;29;20043;-73
2024/01/23 15:02:37;;;;;;;26.77;4.28;;;;;;;;;;4926264;29;20047;-73
2024/01/23 15:05:03;;;;;;;27.25;4.95;;;;;;;;;;4917536;29;20090;-73
2024/01/23 15:07:30;;;;;;;24.60;4.55;;;;;;;;;;4916814;29;20043;-73
2024/01/23 15:09:56;;;;;;;19.38;4.35;;;;;;;;;;4925638;29;20036;-73
2024/01/23 15:12:22;;;;;;;19.17;3.80;;;;;;;;;;4919521;29;20046;-73
2024/01/23 15:14:48;;;;;;;23.83;3.92;;;;;;;;;;4911941;29;20399;-73
2024/01/23 15:17:14;;;;;;;22.98;3.60;;;;;;;;;;4930597;29;20193;-73
2024/01/23 15:19:40;;;;;;;26.45;4.72;;;;;;;;;;4900484;29;20362;-73
2024/01/23 15:22:06;;;;;;;25.00;4.57;;;;;;;;;;4903363;29;20135;-73
2024/01/23 15:24:32;;;;;;;31.42;4.60;;;;;;;;;;4913759;29;20092;-73
2024/01/23 15:26:58;;;;;;;22.85;4.90;;;;;;;;;;4906582;29;20071;-72
2024/01/23 15:29:24;;;;;;;22.90;4.38;;;;;;;;;;4900309;29;20047;-72
2024/01/23 15:31:50;;;;;;;24.02;4.43;;;;;;;;;;4904018;29;20683;-72
2024/01/23 15:34:16;;;;;;;28.33;4.53;;;;;;;;;;4918478;29;20039;-72
2024/01/23 15:36:42;;;;;;;25.42;5.07;;;;;;;;;;4914497;29;20086;-72
2024/01/23 15:39:10;;;;;;;24.08;5.15;;;;;;;;;;4917077;29;20050;-72
2024/01/23 15:41:37;;;;;;;27.60;4.75;;;;;;;;;;4934050;29;20444;-72
2024/01/23 15:44:03;;;;;;;31.15;4.72;;;;;;;;;;4933985;29;20117;-72